sensor_id;sensor_type;location;lat;lon;timestamp;P1;durP1;ratioP1;P2;durP2;ratioP2
26936;SDS011;14495;48.116;11.676;2023-08-20T00:00:10;15.85;;;4.57;;
26936;SDS011;14495;48.116;11.676;2023-08-20T00:02:36;11.20;;;4.60;;
26936;SDS011;14495;48.116;11.676;2023-08-20T00:05:03;9.02;;;4.60;;
26936;SDS011;14495;48.116;11.676;2023-08-20T00:07:30;7.50;;;4.85;;
26936;SDS011;14495;48.116;11.676;2023-08-20T00:09:56;10.75;;;4.60;;
26936;SDS011;14495;48.116;11.676;2023-08-20T00:12:21;11.10;;;4.63;;
26936;SDS011;14495;48.116;11.676;2023-08-20T00:14:54;5.75;;;4.40;;
26936;SDS011;14495;48.116;11.676;2023-08-20T00:17:33;10.30;;;4.82;;
26936;SDS011;14495;48.116;11.676;2023-08-20T00:20:00;8.25;;;4.88;;
26936;SDS011;14495;48.116;11.676;2023-08-20T00:22:26;8.45;;;4.68;;
26936;SDS011;14495;48.116;11.676;2023-08-20T00:24:52;7.38;;;4.55;;
26936;SDS011;14495;48.116;11.676;2023-08-20T00:27:18;8.20;;;5.10;;
26936;SDS011;14495;48.116;11.676;2023-08-20T00:29:44;9.18;;;4.60;;
26936;SDS011;14495;48.116;11.676;2023-08-20T00:32:09;5.75;;;4.22;;
26936;SDS011;14495;48.116;11.676;2023-08-20T00:34:35;24.33;;;5.20;;
26936;SDS011;14495;48.116;11.676;2023-08-20T00:37:01;9.70;;;4.65;;
26936;SDS011;14495;48.116;11.676;2023-08-20T00:39:27;10.52;;;4.68;;
26936;SDS011;14495;48.116;11.676;2023-08-20T00:41:53;9.60;;;4.90;;
26936;SDS011;14495;48.116;11.676;2023-08-20T00:44:18;11.55;;;4.72;;
26936;SDS011;14495;48.116;11.676;2023-08-20T00:46:43;6.90;;;4.60;;
26936;SDS011;14495;48.116;11.676;2023-08-20T00:49:09;8.75;;;5.45;;
26936;SDS011;14495;48.116;11.676;2023-08-20T00:51:35;12.82;;;4.85;;
26936;SDS011;14495;48.116;11.676;2023-08-20T00:54:01;8.43;;;5.03;;
26936;SDS011;14495;48.116;11.676;2023-08-20T00:56:28;10.57;;;4.50;;
26936;SDS011;14495;48.116;11.676;2023-08-20T00:58:54;12.15;;;4.50;;
26936;SDS011;14495;48.116;11.676;2023-08-20T01:01:20;15.10;;;5.22;;
26936;SDS011;14495;48.116;11.676;2023-08-20T01:03:46;9.32;;;5.03;;
26936;SDS011;14495;48.116;11.676;2023-08-20T01:06:18;8.23;;;5.07;;
26936;SDS011;14495;48.116;11.676;2023-08-20T01:08:53;9.57;;;5.43;;
26936;SDS011;14495;48.116;11.676;2023-08-20T01:11:33;12.00;;;5.85;;
26936;SDS011;14495;48.116;11.676;2023-08-20T01:16:27;10.63;;;4.90;;
26936;SDS011;14495;48.116;11.676;2023-08-20T01:18:52;11.38;;;4.93;;
26936;SDS011;14495;48.116;11.676;2023-08-20T01:30:15;8.57;;;4.33;;
26936;SDS011;14495;48.116;11.676;2023-08-20T01:32:42;10.63;;;4.90;;
26936;SDS011;14495;48.116;11.676;2023-08-20T01:35:11;8.57;;;4.32;;
26936;SDS011;14495;48.116;11.676;2023-08-20T01:37:38;10.48;;;4.75;;
26936;SDS011;14495;48.116;11.676;2023-08-20T01:40:04;12.55;;;4.88;;
26936;SDS011;14495;48.116;11.676;2023-08-20T01:42:32;8.18;;;4.30;;
26936;SDS011;14495;48.116;11.676;2023-08-20T01:44:57;7.95;;;4.65;;
26936;SDS011;14495;48.116;11.676;2023-08-20T01:47:22;7.63;;;5.18;;
26936;SDS011;14495;48.116;11.676;2023-08-20T01:49:48;10.30;;;4.80;;
26936;SDS011;14495;48.116;11.676;2023-08-20T01:52:13;11.98;;;4.90;;
26936;SDS011;14495;48.116;11.676;2023-08-20T01:54:38;10.23;;;5.07;;
26936;SDS011;14495;48.116;11.676;2023-08-20T01:57:04;9.07;;;4.80;;
26936;SDS011;14495;48.116;11.676;2023-08-20T01:59:29;8.10;;;4.35;;
26936;SDS011;14495;48.116;11.676;2023-08-20T02:01:54;12.63;;;5.45;;
26936;SDS011;14495;48.116;11.676;2023-08-20T02:04:20;10.32;;;4.68;;
26936;SDS011;14495;48.116;11.676;2023-08-20T02:06:45;7.22;;;4.80;;
26936;SDS011;14495;48.116;11.676;2023-08-20T02:09:10;11.30;;;4.78;;
26936;SDS011;14495;48.116;11.676;2023-08-20T02:11:36;9.23;;;4.57;;
26936;SDS011;14495;48.116;11.676;2023-08-20T02:14:02;13.10;;;4.82;;
26936;SDS011;14495;48.116;11.676;2023-08-20T02:16:27;9.40;;;5.13;;
26936;SDS011;14495;48.116;11.676;2023-08-20T02:18:53;6.88;;;4.53;;
26936;SDS011;14495;48.116;11.676;2023-08-20T02:21:21;8.05;;;4.53;;
26936;SDS011;14495;48.116;11.676;2023-08-20T02:23:46;14.32;;;4.95;;
26936;SDS011;14495;48.116;11.676;2023-08-20T02:26:14;10.52;;;5.10;;
26936;SDS011;14495;48.116;11.676;2023-08-20T02:28:40;7.50;;;4.65;;
26936;SDS011;14495;48.116;11.676;2023-08-20T02:31:05;9.65;;;5.18;;
26936;SDS011;14495;48.116;11.676;2023-08-20T02:33:33;7.28;;;4.70;;
26936;SDS011;14495;48.116;11.676;2023-08-20T02:36:02;6.80;;;5.07;;
26936;SDS011;14495;48.116;11.676;2023-08-20T02:38:28;11.32;;;5.20;;
26936;SDS011;14495;48.116;11.676;2023-08-20T02:40:54;7.22;;;4.63;;
26936;SDS011;14495;48.116;11.676;2023-08-20T02:43:19;7.72;;;5.05;;
26936;SDS011;14495;48.116;11.676;2023-08-20T02:45:44;8.63;;;4.70;;
26936;SDS011;14495;48.116;11.676;2023-08-20T02:48:10;7.68;;;4.57;;
26936;SDS011;14495;48.116;11.676;2023-08-20T02:50:35;11.85;;;5.05;;
26936;SDS011;14495;48.116;11.676;2023-08-20T02:53:01;13.27;;;4.97;;
26936;SDS011;14495;48.116;11.676;2023-08-20T02:55:26;11.05;;;4.95;;
26936;SDS011;14495;48.116;11.676;2023-08-20T02:57:54;7.72;;;5.30;;
26936;SDS011;14495;48.116;11.676;2023-08-20T03:00:20;11.05;;;4.60;;
26936;SDS011;14495;48.116;11.676;2023-08-20T03:02:45;10.52;;;5.00;;
26936;SDS011;14495;48.116;11.676;2023-08-20T03:05:10;11.40;;;4.63;;
26936;SDS011;14495;48.116;11.676;2023-08-20T03:07:36;9.60;;;4.75;;
26936;SDS011;14495;48.116;11.676;2023-08-20T03:10:01;10.93;;;4.78;;
26936;SDS011;14495;48.116;11.676;2023-08-20T03:12:28;11.10;;;4.80;;
26936;SDS011;14495;48.116;11.676;2023-08-20T03:14:53;9.55;;;5.25;;
26936;SDS011;14495;48.116;11.676;2023-08-20T03:17:21;8.50;;;4.88;;
26936;SDS011;14495;48.116;11.676;2023-08-20T03:19:56;8.77;;;4.88;;
26936;SDS011;14495;48.116;11.676;2023-08-20T03:22:22;7.43;;;4.70;;
26936;SDS011;14495;48.116;11.676;2023-08-20T03:24:48;12.77;;;4.50;;
26936;SDS011;14495;48.116;11.676;2023-08-20T03:27:14;9.63;;;5.22;;
26936;SDS011;14495;48.116;11.676;2023-08-20T03:29:40;7.97;;;4.72;;
26936;SDS011;14495;48.116;11.676;2023-08-20T03:32:05;11.15;;;4.88;;
26936;SDS011;14495;48.116;11.676;2023-08-20T03:34:30;13.18;;;6.10;;
26936;SDS011;14495;48.116;11.676;2023-08-20T03:36:56;6.63;;;4.25;;
26936;SDS011;14495;48.116;11.676;2023-08-20T03:39:21;6.28;;;4.63;;
26936;SDS011;14495;48.116;11.676;2023-08-20T03:41:46;6.60;;;4.70;;
26936;SDS011;14495;48.116;11.676;2023-08-20T03:44:14;8.57;;;4.82;;
26936;SDS011;14495;48.116;11.676;2023-08-20T03:46:42;8.90;;;4.93;;
26936;SDS011;14495;48.116;11.676;2023-08-20T03:49:07;9.30;;;4.80;;
26936;SDS011;14495;48.116;11.676;2023-08-20T03:51:32;8.65;;;5.03;;
26936;SDS011;14495;48.116;11.676;2023-08-20T03:53:58;7.63;;;4.78;;
26936;SDS011;14495;48.116;11.676;2023-08-20T03:56:23;8.52;;;4.93;;
26936;SDS011;14495;48.116;11.676;2023-08-20T03:58:48;7.70;;;4.50;;
26936;SDS011;14495;48.116;11.676;2023-08-20T04:01:14;8.07;;;4.90;;
26936;SDS011;14495;48.116;11.676;2023-08-20T04:03:39;10.82;;;4.90;;
26936;SDS011;14495;48.116;11.676;2023-08-20T04:06:04;7.78;;;4.97;;
26936;SDS011;14495;48.116;11.676;2023-08-20T04:08:30;7.45;;;4.57;;
26936;SDS011;14495;48.116;11.676;2023-08-20T04:10:55;7.18;;;4.82;;
26936;SDS011;14495;48.116;11.676;2023-08-20T04:13:20;8.07;;;4.47;;
26936;SDS011;14495;48.116;11.676;2023-08-20T04:15:46;11.05;;;4.60;;
26936;SDS011;14495;48.116;11.676;2023-08-20T04:18:11;11.38;;;5.45;;
26936;SDS011;14495;48.116;11.676;2023-08-20T04:20:37;10.95;;;4.57;;
26936;SDS011;14495;48.116;11.676;2023-08-20T04:23:02;7.05;;;5.47;;
26936;SDS011;14495;48.116;11.676;2023-08-20T04:25:28;12.75;;;4.95;;
26936;SDS011;14495;48.116;11.676;2023-08-20T04:27:53;9.73;;;5.30;;
26936;SDS011;14495;48.116;11.676;2023-08-20T04:30:18;10.35;;;5.32;;
26936;SDS011;14495;48.116;11.676;2023-08-20T04:32:44;15.98;;;5.50;;
26936;SDS011;14495;48.116;11.676;2023-08-20T04:35:10;6.63;;;4.68;;
26936;SDS011;14495;48.116;11.676;2023-08-20T04:37:35;7.10;;;4.13;;
26936;SDS011;14495;48.116;11.676;2023-08-20T04:40:01;12.35;;;4.50;;
26936;SDS011;14495;48.116;11.676;2023-08-20T04:42:29;8.95;;;5.63;;
26936;SDS011;14495;48.116;11.676;2023-08-20T04:44:54;9.80;;;5.53;;
26936;SDS011;14495;48.116;11.676;2023-08-20T04:47:20;7.80;;;5.15;;
26936;SDS011;14495;48.116;11.676;2023-08-20T04:49:45;11.65;;;5.03;;
26936;SDS011;14495;48.116;11.676;2023-08-20T04:52:15;8.50;;;4.88;;
26936;SDS011;14495;48.116;11.676;2023-08-20T04:54:40;8.07;;;4.70;;
26936;SDS011;14495;48.116;11.676;2023-08-20T04:57:05;8.18;;;4.88;;
26936;SDS011;14495;48.116;11.676;2023-08-20T04:59:31;9.77;;;5.00;;
26936;SDS011;14495;48.116;11.676;2023-08-20T05:01:56;7.70;;;4.97;;
26936;SDS011;14495;48.116;11.676;2023-08-20T05:04:22;10.13;;;5.53;;
26936;SDS011;14495;48.116;11.676;2023-08-20T05:06:47;6.63;;;5.05;;
26936;SDS011;14495;48.116;11.676;2023-08-20T05:09:13;10.45;;;4.85;;
26936;SDS011;14495;48.116;11.676;2023-08-20T05:11:38;14.45;;;5.00;;
26936;SDS011;14495;48.116;11.676;2023-08-20T05:14:03;7.35;;;5.00;;
26936;SDS011;14495;48.116;11.676;2023-08-20T05:16:29;7.45;;;4.95;;
26936;SDS011;14495;48.116;11.676;2023-08-20T05:18:54;8.32;;;4.70;;
26936;SDS011;14495;48.116;11.676;2023-08-20T05:21:19;7.90;;;4.88;;
26936;SDS011;14495;48.116;11.676;2023-08-20T05:23:45;9.00;;;5.00;;
26936;SDS011;14495;48.116;11.676;2023-08-20T05:26:10;9.68;;;5.00;;
26936;SDS011;14495;48.116;11.676;2023-08-20T05:28:35;8.25;;;4.72;;
26936;SDS011;14495;48.116;11.676;2023-08-20T05:31:01;7.75;;;4.60;;
26936;SDS011;14495;48.116;11.676;2023-08-20T05:33:26;8.07;;;5.10;;
26936;SDS011;14495;48.116;11.676;2023-08-20T05:35:52;8.45;;;4.57;;
26936;SDS011;14495;48.116;11.676;2023-08-20T05:38:17;10.20;;;4.95;;
26936;SDS011;14495;48.116;11.676;2023-08-20T05:40:43;11.23;;;4.78;;
26936;SDS011;14495;48.116;11.676;2023-08-20T05:43:08;14.57;;;5.20;;
26936;SDS011;14495;48.116;11.676;2023-08-20T05:45:34;7.90;;;5.05;;
26936;SDS011;14495;48.116;11.676;2023-08-20T05:47:59;9.15;;;4.75;;
26936;SDS011;14495;48.116;11.676;2023-08-20T05:50:25;12.52;;;5.05;;
26936;SDS011;14495;48.116;11.676;2023-08-20T05:52:50;7.80;;;4.60;;
26936;SDS011;14495;48.116;11.676;2023-08-20T05:55:17;9.55;;;4.63;;
26936;SDS011;14495;48.116;11.676;2023-08-20T05:57:42;9.13;;;4.90;;
26936;SDS011;14495;48.116;11.676;2023-08-20T06:00:08;6.00;;;4.40;;
26936;SDS011;14495;48.116;11.676;2023-08-20T06:02:34;8.75;;;4.50;;
26936;SDS011;14495;48.116;11.676;2023-08-20T06:04:59;8.93;;;4.43;;
26936;SDS011;14495;48.116;11.676;2023-08-20T06:07:24;7.10;;;4.25;;
26936;SDS011;14495;48.116;11.676;2023-08-20T06:09:50;10.07;;;4.07;;
26936;SDS011;14495;48.116;11.676;2023-08-20T06:12:16;7.97;;;4.22;;
26936;SDS011;14495;48.116;11.676;2023-08-20T06:14:42;11.40;;;3.83;;
26936;SDS011;14495;48.116;11.676;2023-08-20T06:17:07;9.82;;;3.80;;
26936;SDS011;14495;48.116;11.676;2023-08-20T06:19:32;7.18;;;3.63;;
26936;SDS011;14495;48.116;11.676;2023-08-20T06:21:58;8.57;;;3.17;;
26936;SDS011;14495;48.116;11.676;2023-08-20T06:24:23;7.45;;;3.28;;
26936;SDS011;14495;48.116;11.676;2023-08-20T06:26:49;7.30;;;3.35;;
26936;SDS011;14495;48.116;11.676;2023-08-20T06:29:14;11.23;;;3.60;;
26936;SDS011;14495;48.116;11.676;2023-08-20T06:31:42;5.43;;;3.63;;
26936;SDS011;14495;48.116;11.676;2023-08-20T06:34:09;6.38;;;3.20;;
26936;SDS011;14495;48.116;11.676;2023-08-20T06:36:35;7.90;;;3.08;;
26936;SDS011;14495;48.116;11.676;2023-08-20T06:39:00;7.65;;;3.17;;
26936;SDS011;14495;48.116;11.676;2023-08-20T06:41:26;6.95;;;2.97;;
26936;SDS011;14495;48.116;11.676;2023-08-20T06:43:52;9.05;;;2.95;;
26936;SDS011;14495;48.116;11.676;2023-08-20T06:46:19;6.90;;;2.95;;
26936;SDS011;14495;48.116;11.676;2023-08-20T06:48:45;11.25;;;3.53;;
26936;SDS011;14495;48.116;11.676;2023-08-20T06:51:11;7.63;;;3.20;;
26936;SDS011;14495;48.116;11.676;2023-08-20T06:53:37;6.65;;;2.80;;
26936;SDS011;14495;48.116;11.676;2023-08-20T06:56:02;6.15;;;3.15;;
26936;SDS011;14495;48.116;11.676;2023-08-20T06:58:28;6.45;;;2.80;;
26936;SDS011;14495;48.116;11.676;2023-08-20T07:00:53;8.68;;;3.10;;
26936;SDS011;14495;48.116;11.676;2023-08-20T07:03:19;8.15;;;2.60;;
26936;SDS011;14495;48.116;11.676;2023-08-20T07:05:44;3.95;;;2.70;;
26936;SDS011;14495;48.116;11.676;2023-08-20T07:08:09;10.63;;;3.30;;
26936;SDS011;14495;48.116;11.676;2023-08-20T07:10:35;5.00;;;2.80;;
26936;SDS011;14495;48.116;11.676;2023-08-20T07:13:00;9.57;;;3.40;;
26936;SDS011;14495;48.116;11.676;2023-08-20T07:15:25;5.80;;;2.65;;
26936;SDS011;14495;48.116;11.676;2023-08-20T07:17:51;5.78;;;2.70;;
26936;SDS011;14495;48.116;11.676;2023-08-20T07:20:16;4.85;;;2.90;;
26936;SDS011;14495;48.116;11.676;2023-08-20T07:22:41;11.70;;;2.80;;
26936;SDS011;14495;48.116;11.676;2023-08-20T07:25:07;7.35;;;2.80;;
26936;SDS011;14495;48.116;11.676;2023-08-20T07:27:33;10.40;;;2.58;;
26936;SDS011;14495;48.116;11.676;2023-08-20T07:29:59;9.23;;;3.33;;
26936;SDS011;14495;48.116;11.676;2023-08-20T07:32:24;10.43;;;3.15;;
26936;SDS011;14495;48.116;11.676;2023-08-20T07:34:49;5.82;;;2.47;;
26936;SDS011;14495;48.116;11.676;2023-08-20T07:37:15;6.05;;;2.42;;
26936;SDS011;14495;48.116;11.676;2023-08-20T07:39:40;4.53;;;2.47;;
26936;SDS011;14495;48.116;11.676;2023-08-20T07:42:06;7.80;;;2.78;;
26936;SDS011;14495;48.116;11.676;2023-08-20T07:44:31;4.70;;;2.70;;
26936;SDS011;14495;48.116;11.676;2023-08-20T07:46:56;6.78;;;2.75;;
26936;SDS011;14495;48.116;11.676;2023-08-20T07:49:22;4.35;;;2.60;;
26936;SDS011;14495;48.116;11.676;2023-08-20T07:51:47;8.82;;;2.90;;
26936;SDS011;14495;48.116;11.676;2023-08-20T07:54:14;6.55;;;2.75;;
26936;SDS011;14495;48.116;11.676;2023-08-20T07:56:39;6.32;;;3.10;;
26936;SDS011;14495;48.116;11.676;2023-08-20T07:59:07;6.18;;;3.00;;
26936;SDS011;14495;48.116;11.676;2023-08-20T08:01:32;7.55;;;3.63;;
26936;SDS011;14495;48.116;11.676;2023-08-20T08:03:58;8.07;;;3.15;;
26936;SDS011;14495;48.116;11.676;2023-08-20T08:06:23;7.25;;;3.25;;
26936;SDS011;14495;48.116;11.676;2023-08-20T08:08:49;9.13;;;3.30;;
26936;SDS011;14495;48.116;11.676;2023-08-20T08:11:14;7.25;;;3.53;;
26936;SDS011;14495;48.116;11.676;2023-08-20T08:13:39;7.03;;;3.50;;
26936;SDS011;14495;48.116;11.676;2023-08-20T08:16:05;9.45;;;3.90;;
26936;SDS011;14495;48.116;11.676;2023-08-20T08:18:30;10.68;;;3.70;;
26936;SDS011;14495;48.116;11.676;2023-08-20T08:20:55;9.27;;;3.30;;
26936;SDS011;14495;48.116;11.676;2023-08-20T08:23:21;7.40;;;3.60;;
26936;SDS011;14495;48.116;11.676;2023-08-20T08:25:48;8.57;;;3.55;;
26936;SDS011;14495;48.116;11.676;2023-08-20T08:28:14;9.05;;;4.07;;
26936;SDS011;14495;48.116;11.676;2023-08-20T08:30:39;9.70;;;3.80;;
26936;SDS011;14495;48.116;11.676;2023-08-20T08:33:06;9.30;;;3.65;;
26936;SDS011;14495;48.116;11.676;2023-08-20T08:35:31;9.45;;;3.50;;
26936;SDS011;14495;48.116;11.676;2023-08-20T08:37:59;6.53;;;3.47;;
26936;SDS011;14495;48.116;11.676;2023-08-20T08:40:27;5.40;;;3.13;;
26936;SDS011;14495;48.116;11.676;2023-08-20T08:42:54;7.78;;;3.38;;
26936;SDS011;14495;48.116;11.676;2023-08-20T08:45:20;6.53;;;3.45;;
26936;SDS011;14495;48.116;11.676;2023-08-20T08:47:46;9.73;;;3.60;;
26936;SDS011;14495;48.116;11.676;2023-08-20T08:50:12;6.53;;;3.80;;
26936;SDS011;14495;48.116;11.676;2023-08-20T08:52:39;6.88;;;3.45;;
26936;SDS011;14495;48.116;11.676;2023-08-20T08:55:05;7.63;;;3.28;;
26936;SDS011;14495;48.116;11.676;2023-08-20T08:57:33;11.63;;;3.92;;
26936;SDS011;14495;48.116;11.676;2023-08-20T08:59:59;10.02;;;3.97;;
26936;SDS011;14495;48.116;11.676;2023-08-20T09:02:25;11.43;;;3.80;;
26936;SDS011;14495;48.116;11.676;2023-08-20T09:04:52;7.75;;;3.90;;
26936;SDS011;14495;48.116;11.676;2023-08-20T09:07:18;8.88;;;3.92;;
26936;SDS011;14495;48.116;11.676;2023-08-20T09:09:44;5.60;;;3.17;;
26936;SDS011;14495;48.116;11.676;2023-08-20T09:12:20;5.97;;;3.30;;
26936;SDS011;14495;48.116;11.676;2023-08-20T09:14:46;5.85;;;2.80;;
26936;SDS011;14495;48.116;11.676;2023-08-20T09:17:14;7.13;;;3.30;;
26936;SDS011;14495;48.116;11.676;2023-08-20T09:19:40;12.80;;;4.05;;
26936;SDS011;14495;48.116;11.676;2023-08-20T09:22:13;9.43;;;3.80;;
26936;SDS011;14495;48.116;11.676;2023-08-20T09:24:47;7.43;;;4.40;;
26936;SDS011;14495;48.116;11.676;2023-08-20T09:27:20;4.20;;;2.55;;
26936;SDS011;14495;48.116;11.676;2023-08-20T09:34:48;5.78;;;3.78;;
26936;SDS011;14495;48.116;11.676;2023-08-20T09:37:15;6.32;;;3.20;;
26936;SDS011;14495;48.116;11.676;2023-08-20T09:39:43;8.13;;;3.20;;
26936;SDS011;14495;48.116;11.676;2023-08-20T09:42:09;5.53;;;3.35;;
26936;SDS011;14495;48.116;11.676;2023-08-20T09:44:40;7.18;;;3.08;;
26936;SDS011;14495;48.116;11.676;2023-08-20T09:47:09;7.10;;;2.80;;
26936;SDS011;14495;48.116;11.676;2023-08-20T09:49:54;6.07;;;2.80;;
26936;SDS011;14495;48.116;11.676;2023-08-20T09:52:25;7.43;;;3.35;;
26936;SDS011;14495;48.116;11.676;2023-08-20T09:55:00;4.18;;;3.28;;
26936;SDS011;14495;48.116;11.676;2023-08-20T09:57:34;6.32;;;3.15;;
26936;SDS011;14495;48.116;11.676;2023-08-20T10:00:05;6.00;;;2.97;;
26936;SDS011;14495;48.116;11.676;2023-08-20T10:02:34;5.43;;;3.15;;
26936;SDS011;14495;48.116;11.676;2023-08-20T10:05:00;8.57;;;3.78;;
26936;SDS011;14495;48.116;11.676;2023-08-20T10:07:31;5.32;;;3.55;;
26936;SDS011;14495;48.116;11.676;2023-08-20T10:09:57;7.85;;;3.70;;
26936;SDS011;14495;48.116;11.676;2023-08-20T10:12:25;4.30;;;3.45;;
26936;SDS011;14495;48.116;11.676;2023-08-20T10:14:58;5.35;;;3.42;;
26936;SDS011;14495;48.116;11.676;2023-08-20T10:17:25;6.22;;;3.50;;
26936;SDS011;14495;48.116;11.676;2023-08-20T10:19:53;4.95;;;3.13;;
26936;SDS011;14495;48.116;11.676;2023-08-20T10:22:19;6.65;;;3.10;;
26936;SDS011;14495;48.116;11.676;2023-08-20T10:27:26;10.38;;;3.97;;
26936;SDS011;14495;48.116;11.676;2023-08-20T10:29:56;7.32;;;4.07;;
26936;SDS011;14495;48.116;11.676;2023-08-20T10:35:17;4.20;;;3.10;;
26936;SDS011;14495;48.116;11.676;2023-08-20T10:38:04;9.43;;;3.28;;
26936;SDS011;14495;48.116;11.676;2023-08-20T10:43:39;5.15;;;3.25;;
26936;SDS011;14495;48.116;11.676;2023-08-20T10:48:46;4.70;;;2.97;;
26936;SDS011;14495;48.116;11.676;2023-08-20T10:51:19;4.32;;;2.92;;
26936;SDS011;14495;48.116;11.676;2023-08-20T10:56:24;7.15;;;3.00;;
26936;SDS011;14495;48.116;11.676;2023-08-20T10:59:51;9.40;;;3.08;;
26936;SDS011;14495;48.116;11.676;2023-08-20T11:01:56;6.50;;;3.22;;
26936;SDS011;14495;48.116;11.676;2023-08-20T11:04:28;5.05;;;3.25;;
26936;SDS011;14495;48.116;11.676;2023-08-20T11:06:57;3.22;;;2.78;;
26936;SDS011;14495;48.116;11.676;2023-08-20T11:09:24;9.30;;;3.30;;
26936;SDS011;14495;48.116;11.676;2023-08-20T11:11:54;5.63;;;3.47;;
26936;SDS011;14495;48.116;11.676;2023-08-20T11:14:20;5.40;;;3.00;;
26936;SDS011;14495;48.116;11.676;2023-08-20T11:16:47;7.25;;;3.03;;
26936;SDS011;14495;48.116;11.676;2023-08-20T11:19:13;10.90;;;2.83;;
26936;SDS011;14495;48.116;11.676;2023-08-20T11:21:44;8.48;;;3.53;;
26936;SDS011;14495;48.116;11.676;2023-08-20T11:24:11;5.18;;;3.17;;
26936;SDS011;14495;48.116;11.676;2023-08-20T11:26:40;3.70;;;2.80;;
26936;SDS011;14495;48.116;11.676;2023-08-20T11:29:07;3.60;;;2.92;;
26936;SDS011;14495;48.116;11.676;2023-08-20T11:31:33;6.07;;;2.92;;
26936;SDS011;14495;48.116;11.676;2023-08-20T11:34:01;6.78;;;2.65;;
26936;SDS011;14495;48.116;11.676;2023-08-20T11:36:27;4.50;;;3.22;;
26936;SDS011;14495;48.116;11.676;2023-08-20T11:38:53;8.00;;;2.67;;
26936;SDS011;14495;48.116;11.676;2023-08-20T11:41:21;4.72;;;2.90;;
26936;SDS011;14495;48.116;11.676;2023-08-20T11:43:48;7.38;;;3.20;;
26936;SDS011;14495;48.116;11.676;2023-08-20T11:46:18;4.55;;;3.00;;
26936;SDS011;14495;48.116;11.676;2023-08-20T11:49:06;7.25;;;3.00;;
26936;SDS011;14495;48.116;11.676;2023-08-20T11:51:35;5.72;;;3.08;;
26936;SDS011;14495;48.116;11.676;2023-08-20T11:54:02;5.63;;;3.33;;
26936;SDS011;14495;48.116;11.676;2023-08-20T11:56:32;5.15;;;3.13;;
26936;SDS011;14495;48.116;11.676;2023-08-20T11:59:01;11.20;;;3.13;;
26936;SDS011;14495;48.116;11.676;2023-08-20T12:01:33;8.23;;;3.88;;
26936;SDS011;14495;48.116;11.676;2023-08-20T12:03:59;4.20;;;2.80;;
26936;SDS011;14495;48.116;11.676;2023-08-20T12:06:26;5.13;;;2.95;;
26936;SDS011;14495;48.116;11.676;2023-08-20T12:08:56;4.38;;;2.90;;
26936;SDS011;14495;48.116;11.676;2023-08-20T12:11:26;4.68;;;2.90;;
26936;SDS011;14495;48.116;11.676;2023-08-20T12:13:53;5.80;;;2.90;;
26936;SDS011;14495;48.116;11.676;2023-08-20T12:16:20;6.43;;;2.90;;
26936;SDS011;14495;48.116;11.676;2023-08-20T12:18:50;5.05;;;3.20;;
26936;SDS011;14495;48.116;11.676;2023-08-20T12:21:16;5.82;;;3.05;;
26936;SDS011;14495;48.116;11.676;2023-08-20T12:23:41;5.22;;;2.85;;
26936;SDS011;14495;48.116;11.676;2023-08-20T12:26:07;5.38;;;2.78;;
26936;SDS011;14495;48.116;11.676;2023-08-20T12:28:35;6.47;;;2.95;;
26936;SDS011;14495;48.116;11.676;2023-08-20T12:31:00;4.80;;;2.83;;
26936;SDS011;14495;48.116;11.676;2023-08-20T12:33:29;9.63;;;2.63;;
26936;SDS011;14495;48.116;11.676;2023-08-20T12:35:54;6.32;;;2.85;;
26936;SDS011;14495;48.116;11.676;2023-08-20T12:38:20;6.05;;;2.85;;
26936;SDS011;14495;48.116;11.676;2023-08-20T12:40:46;8.15;;;3.40;;
26936;SDS011;14495;48.116;11.676;2023-08-20T12:43:11;6.25;;;3.00;;
26936;SDS011;14495;48.116;11.676;2023-08-20T12:45:37;6.55;;;3.17;;
26936;SDS011;14495;48.116;11.676;2023-08-20T12:48:03;9.05;;;3.45;;
26936;SDS011;14495;48.116;11.676;2023-08-20T12:50:29;7.78;;;3.40;;
26936;SDS011;14495;48.116;11.676;2023-08-20T12:52:56;6.15;;;3.20;;
26936;SDS011;14495;48.116;11.676;2023-08-20T12:55:22;4.70;;;2.78;;
26936;SDS011;14495;48.116;11.676;2023-08-20T12:57:53;6.30;;;3.35;;
26936;SDS011;14495;48.116;11.676;2023-08-20T13:00:25;5.07;;;3.13;;
26936;SDS011;14495;48.116;11.676;2023-08-20T13:02:51;4.97;;;2.97;;
26936;SDS011;14495;48.116;11.676;2023-08-20T13:05:19;5.32;;;3.25;;
26936;SDS011;14495;48.116;11.676;2023-08-20T13:07:47;5.60;;;3.25;;
26936;SDS011;14495;48.116;11.676;2023-08-20T13:10:13;5.60;;;3.22;;
26936;SDS011;14495;48.116;11.676;2023-08-20T13:12:40;6.10;;;3.13;;
26936;SDS011;14495;48.116;11.676;2023-08-20T13:15:07;5.70;;;3.05;;
26936;SDS011;14495;48.116;11.676;2023-08-20T13:17:35;5.60;;;2.92;;
26936;SDS011;14495;48.116;11.676;2023-08-20T13:20:02;6.18;;;2.90;;
26936;SDS011;14495;48.116;11.676;2023-08-20T13:22:27;8.48;;;3.15;;
26936;SDS011;14495;48.116;11.676;2023-08-20T13:24:53;7.30;;;3.67;;
26936;SDS011;14495;48.116;11.676;2023-08-20T13:27:18;5.78;;;2.88;;
26936;SDS011;14495;48.116;11.676;2023-08-20T13:29:43;5.07;;;2.78;;
26936;SDS011;14495;48.116;11.676;2023-08-20T13:32:09;9.07;;;3.25;;
26936;SDS011;14495;48.116;11.676;2023-08-20T13:34:34;6.85;;;2.95;;
26936;SDS011;14495;48.116;11.676;2023-08-20T13:36:59;3.80;;;2.72;;
26936;SDS011;14495;48.116;11.676;2023-08-20T13:39:25;5.80;;;2.85;;
26936;SDS011;14495;48.116;11.676;2023-08-20T13:41:51;7.57;;;3.28;;
26936;SDS011;14495;48.116;11.676;2023-08-20T13:44:16;6.78;;;3.00;;
26936;SDS011;14495;48.116;11.676;2023-08-20T13:46:42;5.93;;;3.10;;
26936;SDS011;14495;48.116;11.676;2023-08-20T13:49:07;7.40;;;3.05;;
26936;SDS011;14495;48.116;11.676;2023-08-20T13:51:33;7.15;;;3.28;;
26936;SDS011;14495;48.116;11.676;2023-08-20T13:54:00;7.75;;;2.60;;
26936;SDS011;14495;48.116;11.676;2023-08-20T13:56:26;3.90;;;2.70;;
26936;SDS011;14495;48.116;11.676;2023-08-20T13:58:52;4.90;;;3.33;;
26936;SDS011;14495;48.116;11.676;2023-08-20T14:01:17;5.97;;;2.83;;
26936;SDS011;14495;48.116;11.676;2023-08-20T14:03:43;5.10;;;2.92;;
26936;SDS011;14495;48.116;11.676;2023-08-20T14:06:08;8.82;;;2.53;;
26936;SDS011;14495;48.116;11.676;2023-08-20T14:08:33;5.82;;;3.08;;
26936;SDS011;14495;48.116;11.676;2023-08-20T14:10:59;7.20;;;2.83;;
26936;SDS011;14495;48.116;11.676;2023-08-20T14:13:24;11.50;;;3.45;;
26936;SDS011;14495;48.116;11.676;2023-08-20T14:15:49;4.13;;;3.10;;
26936;SDS011;14495;48.116;11.676;2023-08-20T14:18:17;5.38;;;2.80;;
26936;SDS011;14495;48.116;11.676;2023-08-20T14:20:42;4.93;;;2.95;;
26936;SDS011;14495;48.116;11.676;2023-08-20T14:23:08;4.95;;;2.97;;
26936;SDS011;14495;48.116;11.676;2023-08-20T14:25:33;3.55;;;2.85;;
26936;SDS011;14495;48.116;11.676;2023-08-20T14:28:02;6.15;;;2.67;;
26936;SDS011;14495;48.116;11.676;2023-08-20T14:30:27;4.43;;;3.10;;
26936;SDS011;14495;48.116;11.676;2023-08-20T14:32:52;4.60;;;3.20;;
26936;SDS011;14495;48.116;11.676;2023-08-20T14:35:19;5.97;;;3.10;;
26936;SDS011;14495;48.116;11.676;2023-08-20T14:37:44;9.77;;;3.25;;
26936;SDS011;14495;48.116;11.676;2023-08-20T14:40:11;5.55;;;3.00;;
26936;SDS011;14495;48.116;11.676;2023-08-20T14:42:39;3.58;;;2.60;;
26936;SDS011;14495;48.116;11.676;2023-08-20T14:45:06;5.57;;;2.78;;
26936;SDS011;14495;48.116;11.676;2023-08-20T14:47:32;3.85;;;2.70;;
26936;SDS011;14495;48.116;11.676;2023-08-20T14:49:57;6.00;;;3.25;;
26936;SDS011;14495;48.116;11.676;2023-08-20T14:52:23;3.88;;;2.85;;
26936;SDS011;14495;48.116;11.676;2023-08-20T14:54:49;6.78;;;3.10;;
26936;SDS011;14495;48.116;11.676;2023-08-20T14:57:14;7.30;;;2.90;;